createdAt,value
2022-10-23T00:01:29.617Z,9.22
2022-10-23T00:03:59.870Z,9.28
2022-10-23T00:06:29.288Z,9.30
2022-10-23T00:08:57.794Z,9.24
2022-10-23T00:11:29.461Z,9.22
2022-10-23T00:14:00.098Z,9.24
2022-10-23T00:16:30.506Z,9.29
2022-10-23T00:18:59.901Z,9.35
2022-10-23T00:21:28.421Z,9.36
2022-10-23T00:23:58.991Z,9.41
2022-10-23T00:26:27.585Z,9.39
2022-10-23T00:28:56.242Z,9.42
2022-10-23T00:31:25.819Z,9.42
2022-10-23T00:33:57.861Z,9.41
2022-10-23T00:36:26.105Z,9.42
2022-10-23T00:38:54.346Z,9.35
2022-10-23T00:41:24.540Z,9.20
2022-10-23T00:44:02.106Z,9.13
2022-10-23T00:46:30.837Z,9.07
2022-10-23T00:49:01.379Z,9.00
2022-10-23T00:51:33.212Z,8.99
2022-10-23T00:54:22.933Z,8.90
2022-10-23T00:56:51.057Z,8.85
2022-10-23T00:59:20.915Z,8.76
2022-10-23T01:01:49.539Z,8.63
2022-10-23T01:04:19.562Z,8.55
2022-10-23T01:06:53.008Z,8.52
2022-10-23T01:09:25.459Z,8.49
2022-10-23T01:11:58.720Z,8.38
2022-10-23T01:14:32.200Z,8.37
2022-10-23T01:17:07.528Z,8.40
2022-10-23T01:19:52.186Z,8.50
2022-10-23T01:22:34.179Z,8.47
2022-10-23T01:25:05.638Z,8.37
2022-10-23T01:27:38.270Z,8.22
2022-10-23T01:30:08.611Z,8.07
2022-10-23T01:32:47.368Z,8.06
2022-10-23T01:35:20.610Z,8.00
2022-10-23T01:38:01.347Z,7.98
2022-10-23T01:40:33.755Z,8.04
2022-10-23T01:43:06.777Z,8.08
2022-10-23T01:45:38.711Z,8.06
2022-10-23T01:48:11.392Z,8.10
2022-10-23T01:50:41.087Z,8.15
2022-10-23T01:53:10.468Z,8.14
2022-10-23T01:58:14.928Z,8.23
2022-10-23T02:00:44.960Z,8.31
2022-10-23T02:03:17.731Z,8.30
2022-10-23T02:05:46.251Z,8.30
2022-10-23T02:08:16.842Z,8.35
2022-10-23T02:10:50.895Z,8.45
2022-10-23T02:13:24.979Z,8.32
2022-10-23T02:15:59.262Z,8.24
2022-10-23T02:18:35.717Z,8.18
2022-10-23T02:21:07.974Z,8.19
2022-10-23T02:23:40.151Z,8.23
2022-10-23T02:26:13.536Z,8.25
2022-10-23T02:28:48.446Z,8.21
2022-10-23T02:31:19.035Z,8.23
2022-10-23T02:33:48.705Z,8.30
2022-10-23T02:36:17.600Z,8.34
2022-10-23T02:38:47.587Z,8.31
2022-10-23T02:41:26.146Z,8.33
2022-10-23T02:44:12.397Z,8.29
2022-10-23T02:46:50.572Z,8.26
2022-10-23T02:49:21.843Z,8.26
2022-10-23T02:51:57.438Z,8.27
2022-10-23T02:54:37.504Z,8.24
2022-10-23T02:57:10.849Z,8.18
2022-10-23T02:59:45.145Z,8.09
2022-10-23T03:02:18.734Z,7.90
2022-10-23T03:04:48.001Z,7.94
2022-10-23T03:07:16.868Z,7.94
2022-10-23T03:09:45.199Z,7.97
2022-10-23T03:12:18.339Z,8.01
2022-10-23T03:14:48.163Z,8.06
2022-10-23T03:17:18.784Z,8.07
2022-10-23T03:19:48.635Z,7.97
2022-10-23T03:22:17.284Z,7.83
2022-10-23T03:24:45.797Z,7.87
2022-10-23T03:27:15.017Z,7.89
2022-10-23T03:29:43.885Z,7.89
2022-10-23T03:32:13.681Z,7.86
2022-10-23T03:34:42.060Z,7.86
2022-10-23T03:37:13.559Z,7.83
2022-10-23T03:39:42.005Z,7.82
2022-10-23T03:42:10.385Z,7.82
2022-10-23T03:44:38.750Z,7.90
2022-10-23T03:47:07.646Z,7.83
2022-10-23T03:49:37.577Z,7.78
2022-10-23T03:52:08.912Z,7.66
2022-10-23T03:54:37.477Z,7.57
2022-10-23T03:57:05.825Z,7.45
2022-10-23T03:59:34.239Z,7.29
2022-10-23T04:02:02.698Z,7.30
2022-10-23T04:04:33.414Z,7.25
2022-10-23T04:07:03.250Z,7.09
2022-10-23T04:09:31.648Z,7.14
2022-10-23T04:12:00.058Z,7.10
2022-10-23T04:14:30.198Z,7.08
2022-10-23T04:16:58.555Z,7.10
2022-10-23T04:19:28.896Z,7.02
2022-10-23T04:21:58.373Z,6.99
2022-10-23T04:24:28.531Z,6.91
2022-10-23T04:26:57.882Z,6.86
2022-10-23T04:29:31.760Z,6.84
2022-10-23T04:32:00.586Z,7.08
2022-10-23T04:34:29.892Z,6.87
2022-10-23T04:36:58.440Z,6.72
2022-10-23T04:39:28.284Z,6.60
2022-10-23T04:41:59.897Z,6.48
2022-10-23T04:44:30.037Z,6.45
2022-10-23T04:46:59.084Z,6.41
2022-10-23T04:49:27.731Z,6.40
2022-10-23T04:52:15.667Z,6.36
2022-10-23T04:55:17.926Z,6.40
2022-10-23T04:57:54.610Z,6.41
2022-10-23T05:00:28.480Z,6.34
2022-10-23T05:02:58.401Z,6.25
2022-10-23T05:05:33.680Z,6.17
2022-10-23T05:08:24.257Z,6.15
2022-10-23T05:11:26.296Z,6.17
2022-10-23T05:13:55.205Z,6.12
2022-10-23T05:16:32.238Z,6.14
2022-10-23T05:19:01.233Z,6.23
2022-10-23T05:21:31.560Z,6.27
2022-10-23T05:24:02.192Z,6.28
2022-10-23T05:26:32.531Z,6.35
2022-10-23T05:29:07.514Z,6.43
2022-10-23T05:31:36.900Z,6.53
2022-10-23T05:34:13.772Z,6.64
2022-10-23T05:36:45.617Z,6.75
2022-10-23T05:39:15.445Z,6.78
2022-10-23T05:41:45.356Z,6.83
2022-10-23T05:44:13.838Z,6.89
2022-10-23T05:47:14.117Z,7.02
2022-10-23T05:49:54.128Z,7.06
2022-10-23T05:52:48.010Z,7.11
2022-10-23T05:55:33.134Z,7.19
2022-10-23T05:58:21.035Z,7.20
2022-10-23T06:01:10.568Z,7.18
2022-10-23T06:03:56.146Z,7.23
2022-10-23T06:06:31.526Z,7.30
2022-10-23T06:08:59.943Z,7.26
2022-10-23T06:11:28.390Z,7.29
2022-10-23T06:14:02.838Z,7.27
2022-10-23T06:16:32.543Z,7.35
2022-10-23T06:19:02.039Z,7.43
2022-10-23T06:21:30.567Z,7.47
2022-10-23T06:23:59.332Z,7.51
2022-10-23T06:26:48.066Z,7.53
2022-10-23T06:29:22.762Z,7.54
2022-10-23T06:31:52.382Z,7.52
2022-10-23T06:34:52.551Z,7.52
2022-10-23T06:37:21.239Z,7.67
2022-10-23T06:40:01.842Z,7.76
2022-10-23T06:42:43.825Z,7.91
2022-10-23T06:45:38.109Z,7.95
2022-10-23T06:48:15.901Z,8.02
2022-10-23T06:51:15.607Z,8.08
2022-10-23T06:53:46.062Z,8.22
2022-10-23T06:56:35.257Z,8.23
2022-10-23T06:59:08.737Z,8.29
2022-10-23T07:01:39.845Z,8.39
2022-10-23T07:04:09.636Z,8.35
2022-10-23T07:06:40.272Z,8.53
2022-10-23T07:09:09.236Z,8.27
2022-10-23T07:11:57.882Z,8.36
2022-10-23T07:14:34.655Z,8.14
2022-10-23T07:17:08.165Z,8.08
2022-10-23T07:19:36.687Z,8.23
2022-10-23T07:22:12.031Z,8.35
2022-10-23T07:24:50.311Z,8.39
2022-10-23T07:27:26.826Z,8.40
2022-10-23T07:30:01.675Z,8.48
2022-10-23T07:32:36.389Z,8.61
2022-10-23T07:35:23.656Z,8.78
2022-10-23T07:38:15.137Z,8.61
2022-10-23T07:40:47.547Z,8.85
2022-10-23T07:43:20.996Z,9.01
2022-10-23T07:45:50.431Z,9.32
2022-10-23T07:48:27.701Z,9.62
2022-10-23T07:51:01.926Z,9.71
2022-10-23T07:53:32.430Z,9.81
2022-10-23T07:56:15.360Z,9.82
2022-10-23T07:59:02.326Z,10.11
2022-10-23T08:01:32.987Z,10.16
2022-10-23T08:04:02.991Z,10.35
2022-10-23T08:06:35.389Z,10.37
2022-10-23T08:09:06.569Z,10.41
2022-10-23T08:11:39.955Z,10.21
2022-10-23T08:14:10.736Z,10.24
2022-10-23T08:16:40.861Z,10.47
2022-10-23T08:19:30.410Z,10.60
2022-10-23T08:22:00.635Z,10.75
2022-10-23T08:24:28.995Z,10.81
2022-10-23T08:26:58.718Z,10.90
2022-10-23T08:29:30.797Z,11.01
2022-10-23T08:32:00.861Z,10.71
2022-10-23T08:34:41.992Z,10.80
2022-10-23T08:37:10.629Z,10.67
2022-10-23T08:39:38.925Z,10.59
2022-10-23T08:42:22.071Z,10.81
2022-10-23T08:45:00.724Z,10.70
2022-10-23T08:47:32.466Z,11.03
2022-10-23T08:50:41.301Z,11.22
2022-10-23T08:53:16.560Z,11.42
2022-10-23T08:55:47.941Z,11.48
2022-10-23T08:58:18.705Z,11.65
2022-10-23T09:00:48.984Z,11.95
2022-10-23T09:03:17.767Z,12.09
2022-10-23T09:05:58.686Z,12.28
2022-10-23T09:08:37.688Z,12.21
2022-10-23T09:11:08.444Z,12.32
2022-10-23T09:14:02.172Z,12.50
2022-10-23T09:16:42.054Z,12.73
2022-10-23T09:19:14.790Z,12.71
2022-10-23T09:21:46.238Z,12.75
2022-10-23T09:24:17.981Z,13.04
2022-10-23T09:26:49.760Z,12.86
2022-10-23T09:29:23.985Z,12.76
2022-10-23T09:31:53.306Z,12.86
2022-10-23T09:34:23.745Z,12.81
2022-10-23T09:39:30.732Z,12.72
2022-10-23T09:41:59.523Z,12.68
2022-10-23T09:44:31.240Z,12.91
2022-10-23T09:47:01.681Z,12.72
2022-10-23T09:49:31.743Z,12.82
2022-10-23T09:52:06.091Z,12.75
2022-10-23T09:54:37.728Z,12.76
2022-10-23T09:57:15.723Z,12.81
2022-10-23T09:59:44.052Z,13.20
2022-10-23T10:02:21.671Z,13.47
2022-10-23T10:05:23.608Z,13.72
2022-10-23T10:07:57.945Z,14.22
2022-10-23T10:10:27.773Z,14.29
2022-10-23T10:13:00.159Z,14.27
2022-10-23T10:15:30.150Z,14.79
2022-10-23T10:18:09.354Z,14.66
2022-10-23T10:20:48.029Z,14.63
2022-10-23T10:23:28.154Z,14.64
2022-10-23T10:26:04.193Z,14.85
2022-10-23T10:28:43.849Z,14.91
2022-10-23T10:31:18.005Z,15.43
2022-10-23T10:33:53.434Z,15.90
2022-10-23T10:36:34.086Z,16.02
2022-10-23T10:39:05.628Z,16.17
2022-10-23T10:41:41.600Z,16.53
2022-10-23T10:44:34.195Z,16.57
2022-10-23T10:47:08.284Z,16.91
2022-10-23T10:49:43.145Z,17.43
2022-10-23T10:52:33.324Z,17.59
2022-10-23T10:55:12.726Z,17.86
2022-10-23T10:57:43.878Z,18.10
2022-10-23T11:00:17.422Z,18.31
2022-10-23T11:02:48.166Z,18.38
2022-10-23T11:05:26.125Z,18.31
2022-10-23T11:07:57.515Z,18.30
2022-10-23T11:10:28.424Z,18.94
2022-10-23T11:12:57.053Z,18.49
2022-10-23T11:15:28.728Z,18.03
2022-10-23T11:18:00.353Z,18.16
2022-10-23T11:20:50.984Z,18.59
2022-10-23T11:23:54.020Z,18.79
2022-10-23T11:26:34.241Z,19.23
2022-10-23T11:29:37.686Z,19.42
2022-10-23T11:32:20.287Z,19.55
2022-10-23T11:35:09.314Z,19.57
2022-10-23T11:37:40.969Z,19.49
2022-10-23T11:40:22.958Z,19.93
2022-10-23T11:42:53.380Z,19.67
2022-10-23T11:45:34.048Z,20.02
2022-10-23T11:48:03.695Z,19.89
2022-10-23T11:50:34.243Z,20.01
2022-10-23T11:53:13.930Z,20.15
2022-10-23T11:55:59.946Z,19.66
2022-10-23T11:58:45.376Z,20.08
2022-10-23T12:01:36.106Z,20.21
2022-10-23T12:04:15.527Z,20.16
2022-10-23T12:06:46.940Z,19.89
2022-10-23T12:09:32.100Z,19.69
2022-10-23T12:12:31.957Z,19.46
2022-10-23T12:15:20.408Z,19.84
2022-10-23T12:17:51.326Z,19.61
2022-10-23T12:20:32.798Z,20.03
2022-10-23T12:23:17.458Z,20.43
2022-10-23T12:25:58.451Z,20.48
2022-10-23T12:28:32.969Z,20.68
2022-10-23T12:31:09.708Z,20.90
2022-10-23T12:33:44.532Z,20.79
2022-10-23T12:36:33.852Z,20.81
2022-10-23T12:39:02.314Z,20.64
2022-10-23T12:41:32.834Z,21.24
2022-10-23T12:44:03.464Z,21.42
2022-10-23T12:46:35.228Z,22.36
2022-10-23T12:49:14.654Z,22.14
2022-10-23T12:51:43.017Z,22.88
2022-10-23T12:54:17.339Z,22.19
2022-10-23T12:56:46.353Z,22.15
2022-10-23T12:59:18.304Z,22.11
2022-10-23T13:01:52.419Z,22.31
2022-10-23T13:04:28.048Z,22.14
2022-10-23T13:06:57.152Z,21.85
2022-10-23T13:09:29.042Z,21.55
2022-10-23T13:12:24.432Z,21.56
2022-10-23T13:14:59.421Z,21.45
2022-10-23T13:17:40.244Z,20.95
2022-10-23T13:20:27.835Z,21.56
2022-10-23T13:23:01.286Z,21.42
2022-10-23T13:25:32.254Z,21.03
2022-10-23T13:28:25.408Z,20.96
2022-10-23T13:31:25.196Z,21.16
2022-10-23T13:34:07.520Z,21.20
2022-10-23T13:36:37.724Z,21.65
2022-10-23T13:39:15.415Z,21.22
2022-10-23T13:41:45.079Z,21.36
2022-10-23T13:44:18.582Z,21.45
2022-10-23T13:46:48.528Z,21.35
2022-10-23T13:49:18.563Z,21.46
2022-10-23T13:51:50.324Z,21.94
2022-10-23T13:54:22.657Z,22.14
2022-10-23T13:56:54.326Z,22.69
2022-10-23T13:59:22.847Z,21.68
2022-10-23T14:04:24.119Z,21.74
2022-10-23T14:06:58.715Z,21.46
2022-10-23T14:09:27.204Z,21.47
2022-10-23T14:11:57.821Z,20.74
2022-10-23T14:14:26.642Z,20.49
2022-10-23T14:16:55.394Z,20.14
2022-10-23T14:19:25.374Z,19.75
2022-10-23T14:21:54.143Z,19.36
2022-10-23T14:24:23.733Z,19.23
2022-10-23T14:26:52.544Z,18.86
2022-10-23T14:29:24.062Z,18.72
2022-10-23T14:31:53.102Z,18.54
2022-10-23T14:34:21.982Z,18.49
2022-10-23T14:37:04.023Z,18.28
2022-10-23T14:39:37.010Z,18.28
2022-10-23T14:42:05.851Z,18.30
2022-10-23T14:44:34.447Z,18.32
2022-10-23T14:47:03.243Z,18.27
2022-10-23T14:49:32.796Z,18.11
2022-10-23T14:52:03.548Z,18.06
2022-10-23T14:54:34.623Z,18.04
2022-10-23T14:57:02.961Z,18.01
2022-10-23T14:59:35.204Z,17.92
2022-10-23T15:02:07.124Z,17.87
2022-10-23T15:04:35.886Z,17.84
2022-10-23T15:07:07.031Z,17.72
2022-10-23T15:09:37.156Z,17.51
2022-10-23T15:12:05.984Z,17.47
2022-10-23T15:14:34.691Z,17.38
2022-10-23T15:17:05.920Z,17.16
2022-10-23T15:19:34.227Z,17.06
2022-10-23T15:22:03.124Z,16.96
2022-10-23T15:24:36.360Z,16.88
2022-10-23T15:27:05.029Z,16.73
2022-10-23T15:29:34.038Z,16.64
2022-10-23T15:32:03.078Z,16.52
2022-10-23T15:34:32.952Z,16.40
2022-10-23T15:37:04.229Z,16.31
2022-10-23T15:39:39.178Z,16.16
2022-10-23T15:42:08.784Z,16.04
2022-10-23T15:44:37.966Z,15.94
2022-10-23T15:47:06.853Z,15.84
2022-10-23T15:49:35.380Z,15.75
2022-10-23T15:52:05.675Z,15.66
2022-10-23T15:54:34.491Z,15.48
2022-10-23T15:57:06.244Z,15.27
2022-10-23T15:59:35.391Z,15.05
2022-10-23T16:02:04.301Z,15.01
2022-10-23T16:04:38.039Z,15.03
2022-10-23T16:07:07.336Z,14.97
2022-10-23T16:09:36.959Z,14.69
2022-10-23T16:12:11.723Z,14.70
2022-10-23T16:14:41.063Z,14.51
2022-10-23T16:17:09.800Z,14.45
2022-10-23T16:19:38.684Z,14.37
2022-10-23T16:22:10.419Z,14.22
2022-10-23T16:24:40.120Z,13.95
2022-10-23T16:27:10.959Z,14.05
2022-10-23T16:29:40.010Z,14.01
2022-10-23T16:32:08.437Z,14.03
2022-10-23T16:34:37.788Z,13.83
2022-10-23T16:37:06.654Z,13.68
2022-10-23T16:39:48.221Z,13.58
2022-10-23T16:42:30.943Z,13.49
2022-10-23T16:45:12.678Z,13.47
2022-10-23T16:47:41.747Z,13.40
2022-10-23T16:50:11.153Z,13.41
2022-10-23T16:52:43.528Z,13.42
2022-10-23T16:55:18.066Z,13.52
2022-10-23T16:57:53.684Z,13.43
2022-10-23T17:00:24.946Z,13.19
2022-10-23T17:02:54.718Z,13.07
2022-10-23T17:05:26.915Z,13.00
2022-10-23T17:08:03.153Z,13.00
2022-10-23T17:10:40.363Z,13.19
2022-10-23T17:13:13.607Z,13.18
2022-10-23T17:15:44.317Z,13.25
2022-10-23T17:18:14.257Z,13.13
2022-10-23T17:20:46.201Z,12.99
2022-10-23T17:23:18.595Z,12.81
2022-10-23T17:25:58.266Z,12.70
2022-10-23T17:28:30.310Z,12.85
2022-10-23T17:31:00.795Z,12.45
2022-10-23T17:33:33.662Z,12.46
2022-10-23T17:36:05.828Z,12.38
2022-10-23T17:38:38.766Z,12.17
2022-10-23T17:41:10.438Z,12.15
2022-10-23T17:43:43.794Z,12.21
2022-10-23T17:46:15.874Z,12.13
2022-10-23T17:48:47.795Z,12.33
2022-10-23T17:51:23.217Z,12.09
2022-10-23T17:53:55.981Z,12.04
2022-10-23T17:56:28.329Z,11.99
2022-10-23T17:59:03.225Z,11.92
2022-10-23T18:01:33.989Z,11.90
2022-10-23T18:04:06.142Z,11.88
2022-10-23T18:06:38.650Z,11.96
2022-10-23T18:09:10.353Z,11.89
2022-10-23T18:11:45.409Z,11.85
2022-10-23T18:14:19.401Z,11.79
2022-10-23T18:16:50.590Z,11.84
2022-10-23T18:19:27.011Z,12.09
2022-10-23T18:21:58.062Z,12.02
2022-10-23T18:24:28.937Z,12.15
2022-10-23T18:27:01.201Z,12.18
2022-10-23T18:29:32.905Z,11.92
2022-10-23T18:32:02.973Z,11.80
2022-10-23T18:34:33.607Z,11.69
2022-10-23T18:37:03.996Z,11.54
2022-10-23T18:39:33.990Z,11.44
2022-10-23T18:42:04.998Z,11.38
2022-10-23T18:44:36.746Z,11.35
2022-10-23T18:47:18.712Z,11.30
2022-10-23T18:49:50.028Z,11.32
2022-10-23T18:52:24.660Z,11.36
2022-10-23T18:55:01.751Z,11.32
2022-10-23T18:57:33.053Z,11.25
2022-10-23T19:00:06.069Z,11.38
2022-10-23T19:02:38.830Z,11.27
2022-10-23T19:05:10.298Z,11.36
2022-10-23T19:07:46.644Z,11.36
2022-10-23T19:10:20.692Z,11.35
2022-10-23T19:12:51.547Z,11.43
2022-10-23T19:15:23.106Z,11.59
2022-10-23T19:17:56.736Z,11.56
2022-10-23T19:23:04.290Z,11.39
2022-10-23T19:25:36.023Z,11.60
2022-10-23T19:28:08.194Z,11.56
2022-10-23T19:30:39.419Z,11.67
2022-10-23T19:33:10.234Z,11.77
2022-10-23T19:35:43.484Z,11.65
2022-10-23T19:38:13.941Z,11.77
2022-10-23T19:40:47.655Z,11.82
2022-10-23T19:43:18.722Z,11.87
2022-10-23T19:45:53.578Z,12.06
2022-10-23T19:48:23.543Z,12.36
2022-10-23T19:50:54.881Z,12.22
2022-10-23T19:53:25.004Z,12.13
2022-10-23T19:56:05.446Z,12.24
2022-10-23T19:58:35.825Z,12.08
2022-10-23T20:01:11.536Z,12.02
2022-10-23T20:03:41.539Z,12.12
2022-10-23T20:06:15.368Z,12.13
2022-10-23T20:08:45.545Z,12.11
2022-10-23T20:11:21.962Z,12.09
2022-10-23T20:13:52.413Z,12.12
2022-10-23T20:16:28.371Z,12.23
2022-10-23T20:19:00.051Z,12.50
2022-10-23T20:21:29.399Z,12.24
2022-10-23T20:23:59.867Z,11.88
2022-10-23T20:26:31.050Z,11.73
2022-10-23T20:29:01.182Z,11.65
2022-10-23T20:31:32.076Z,11.58
2022-10-23T20:34:01.775Z,11.58
2022-10-23T20:36:34.220Z,11.46
2022-10-23T20:39:07.245Z,11.33
2022-10-23T20:41:39.562Z,11.14
2022-10-23T20:44:10.873Z,11.04
2022-10-23T20:46:44.687Z,11.10
2022-10-23T20:49:15.144Z,11.09
2022-10-23T20:51:47.497Z,11.00
2022-10-23T20:54:16.643Z,10.91
2022-10-23T20:56:45.808Z,10.85
2022-10-23T20:59:16.079Z,10.82
2022-10-23T21:01:49.534Z,10.79
2022-10-23T21:04:19.142Z,10.88
2022-10-23T21:07:08.449Z,10.84
2022-10-23T21:09:36.149Z,10.98
2022-10-23T21:12:04.688Z,11.04
2022-10-23T21:14:32.971Z,10.92
2022-10-23T21:17:06.050Z,10.88
2022-10-23T21:19:34.419Z,10.95
2022-10-23T21:22:02.653Z,11.18
2022-10-23T21:24:30.994Z,11.35
2022-10-23T21:27:02.239Z,11.52
2022-10-23T21:29:30.706Z,11.45
2022-10-23T21:32:01.160Z,11.36
2022-10-23T21:34:31.178Z,11.28
2022-10-23T21:37:15.244Z,11.35
2022-10-23T21:39:44.372Z,11.39
2022-10-23T21:42:12.815Z,11.25
2022-10-23T21:44:46.009Z,11.07
2022-10-23T21:47:14.375Z,10.99
2022-10-23T21:49:44.166Z,10.96
2022-10-23T21:52:14.037Z,10.88
2022-10-23T21:54:44.747Z,10.78
2022-10-23T21:57:14.497Z,10.79
2022-10-23T21:59:42.728Z,10.80
2022-10-23T22:02:11.404Z,10.74
2022-10-23T22:04:44.424Z,10.69
2022-10-23T22:07:15.008Z,10.67
2022-10-23T22:09:45.691Z,10.60
2022-10-23T22:12:13.963Z,10.60
2022-10-23T22:14:42.675Z,10.64
2022-10-23T22:17:10.944Z,10.49
2022-10-23T22:19:42.250Z,10.52
2022-10-23T22:22:11.942Z,10.40
2022-10-23T22:24:40.189Z,10.35
2022-10-23T22:27:08.401Z,10.31
2022-10-23T22:29:36.711Z,10.34
2022-10-23T22:32:05.347Z,10.41
2022-10-23T22:34:51.939Z,10.41
2022-10-23T22:37:22.268Z,10.44
2022-10-23T22:39:52.163Z,10.68
2022-10-23T22:42:20.928Z,10.47
2022-10-23T22:44:49.202Z,10.48
2022-10-23T22:47:17.492Z,10.48
2022-10-23T22:49:45.802Z,10.39
2022-10-23T22:52:14.089Z,10.33
2022-10-23T22:54:44.689Z,10.29
2022-10-23T22:57:12.989Z,10.26
2022-10-23T22:59:41.531Z,10.23
2022-10-23T23:02:10.133Z,10.08
2022-10-23T23:04:39.221Z,10.03
2022-10-23T23:07:08.578Z,9.94
2022-10-23T23:09:38.801Z,9.82
2022-10-23T23:12:09.652Z,9.82
2022-10-23T23:14:37.963Z,9.83
2022-10-23T23:17:08.103Z,9.82
2022-10-23T23:19:36.830Z,9.84
2022-10-23T23:22:05.280Z,9.81
2022-10-23T23:24:33.960Z,9.84
2022-10-23T23:27:02.329Z,9.89
2022-10-23T23:29:32.039Z,10.05
2022-10-23T23:32:01.558Z,10.04
2022-10-23T23:34:30.049Z,9.94
2022-10-23T23:36:58.262Z,10.22
2022-10-23T23:39:28.795Z,9.90
2022-10-23T23:41:57.155Z,10.05
2022-10-23T23:44:25.461Z,9.85
2022-10-23T23:46:55.152Z,9.77
2022-10-23T23:49:23.504Z,9.75
2022-10-23T23:51:51.960Z,9.92
2022-10-23T23:54:20.195Z,9.77
2022-10-23T23:56:48.490Z,9.96
2022-10-23T23:59:16.747Z,10.04
